createdAt,value
2018-08-25T00:00:20.042Z,10.08
2018-08-25T00:02:49.394Z,11.10
2018-08-25T00:05:17.656Z,11.78
2018-08-25T00:07:45.823Z,13.00
2018-08-25T00:10:13.908Z,10.82
2018-08-25T00:12:41.719Z,12.55
2018-08-25T00:15:09.276Z,13.75
2018-08-25T00:17:36.840Z,12.13
2018-08-25T00:20:04.693Z,12.47
2018-08-25T00:22:32.115Z,14.23
2018-08-25T00:24:59.578Z,14.35
2018-08-25T00:27:26.996Z,13.95
2018-08-25T00:29:54.552Z,13.75
2018-08-25T00:32:22.065Z,11.05
2018-08-25T00:34:50.221Z,13.80
2018-08-25T00:37:17.727Z,13.30
2018-08-25T00:39:45.496Z,10.97
2018-08-25T00:42:13.373Z,12.35
2018-08-25T00:44:40.955Z,12.25
2018-08-25T00:47:08.480Z,13.45
2018-08-25T00:49:36.268Z,11.10
2018-08-25T00:52:04.121Z,10.78
2018-08-25T00:54:31.972Z,12.50
2018-08-25T00:57:00.037Z,12.68
2018-08-25T00:59:28.042Z,15.08
2018-08-25T01:01:55.901Z,12.03
2018-08-25T01:04:25.083Z,9.30
2018-08-25T01:06:52.900Z,14.20
2018-08-25T01:09:22.295Z,11.43
2018-08-25T01:11:51.156Z,12.65
2018-08-25T01:14:20.719Z,12.00
2018-08-25T01:16:50.392Z,15.35
2018-08-25T01:19:18.288Z,9.98
2018-08-25T01:21:45.895Z,12.60
2018-08-25T01:24:13.597Z,14.05
2018-08-25T01:26:41.498Z,13.28
2018-08-25T01:29:09.913Z,11.10
2018-08-25T01:31:37.735Z,11.05
2018-08-25T01:34:05.736Z,14.93
2018-08-25T01:36:33.513Z,12.28
2018-08-25T01:39:01.257Z,12.73
2018-08-25T01:41:29.532Z,11.77
2018-08-25T01:43:57.139Z,12.80
2018-08-25T01:46:24.865Z,10.72
2018-08-25T01:48:53.566Z,13.32
2018-08-25T01:51:21.494Z,12.65
2018-08-25T01:53:49.218Z,13.32
2018-08-25T01:56:17.011Z,16.40
2018-08-25T01:58:45.271Z,11.22
2018-08-25T02:01:13.455Z,10.00
2018-08-25T02:03:41.352Z,9.93
2018-08-25T02:06:09.231Z,14.23
2018-08-25T02:08:36.824Z,11.25
2018-08-25T02:11:04.540Z,9.97
2018-08-25T02:13:32.229Z,12.68
2018-08-25T02:16:00.264Z,10.35
2018-08-25T02:18:29.331Z,13.33
2018-08-25T02:20:57.462Z,12.17
2018-08-25T02:23:25.040Z,12.33
2018-08-25T02:25:52.992Z,12.60
2018-08-25T02:28:21.566Z,13.15
2018-08-25T02:30:49.460Z,11.75
2018-08-25T02:33:17.207Z,10.70
2018-08-25T02:35:45.076Z,12.35
2018-08-25T02:38:14.884Z,10.10
2018-08-25T02:40:43.249Z,11.45
2018-08-25T02:43:12.304Z,12.30
2018-08-25T02:45:39.833Z,11.30
2018-08-25T02:48:07.601Z,10.70
2018-08-25T02:50:35.634Z,11.10
2018-08-25T02:53:03.549Z,9.83
2018-08-25T02:55:31.025Z,14.68
2018-08-25T02:57:58.916Z,9.40
2018-08-25T03:00:26.740Z,11.45
2018-08-25T03:02:54.287Z,9.90
2018-08-25T03:05:21.755Z,10.50
2018-08-25T03:07:49.509Z,10.90
2018-08-25T03:10:17.313Z,10.60
2018-08-25T03:12:45.040Z,14.30
2018-08-25T03:15:13.113Z,11.90
2018-08-25T03:17:40.878Z,11.03
2018-08-25T03:20:08.909Z,10.98
2018-08-25T03:22:36.757Z,10.55
2018-08-25T03:25:04.277Z,12.55
2018-08-25T03:27:32.042Z,10.05
2018-08-25T03:29:59.809Z,10.50
2018-08-25T03:32:27.889Z,12.03
2018-08-25T03:34:56.000Z,11.87
2018-08-25T03:37:23.853Z,9.47
2018-08-25T03:39:51.746Z,9.33
2018-08-25T03:42:19.441Z,11.03
2018-08-25T03:44:47.104Z,9.70
2018-08-25T03:47:14.735Z,11.63
2018-08-25T03:49:42.572Z,11.30
2018-08-25T03:52:10.035Z,10.48
2018-08-25T03:54:37.867Z,13.48
2018-08-25T03:57:05.321Z,12.78
2018-08-25T03:59:33.085Z,12.13
2018-08-25T04:02:01.052Z,13.20
2018-08-25T04:04:28.882Z,9.85
2018-08-25T04:06:56.689Z,9.33
2018-08-25T04:09:24.557Z,12.13
2018-08-25T04:11:52.057Z,12.18
2018-08-25T04:14:19.880Z,12.07
2018-08-25T04:16:47.948Z,12.70
2018-08-25T04:19:21.979Z,11.50
2018-08-25T04:21:50.038Z,10.00
2018-08-25T04:24:17.532Z,16.85
2018-08-25T04:26:45.198Z,10.55
2018-08-25T04:29:13.276Z,15.28
2018-08-25T04:31:40.991Z,9.95
2018-08-25T04:34:09.113Z,12.85
2018-08-25T04:36:36.587Z,11.73
2018-08-25T04:39:06.230Z,12.23
2018-08-25T04:41:33.648Z,8.80
2018-08-25T04:44:01.461Z,13.40
2018-08-25T04:46:29.241Z,11.57
2018-08-25T04:48:56.671Z,11.80
2018-08-25T04:51:24.749Z,10.60
2018-08-25T04:53:52.359Z,13.60
2018-08-25T04:56:20.079Z,11.00
2018-08-25T04:58:47.832Z,11.40
2018-08-25T05:01:15.600Z,11.90
2018-08-25T05:03:43.070Z,10.80
2018-08-25T05:06:11.240Z,11.05
2018-08-25T05:08:38.850Z,11.63
2018-08-25T05:11:06.402Z,14.10
2018-08-25T05:13:34.137Z,8.90
2018-08-25T05:16:01.849Z,11.00
2018-08-25T05:18:29.372Z,13.65
2018-08-25T05:20:56.835Z,10.45
2018-08-25T05:23:24.864Z,9.63
2018-08-25T05:25:52.652Z,12.28
2018-08-25T05:28:20.368Z,10.72
2018-08-25T05:30:48.476Z,12.37
2018-08-25T05:33:16.288Z,10.23
2018-08-25T05:35:44.053Z,11.35
2018-08-25T05:38:11.725Z,12.33
2018-08-25T05:40:39.257Z,10.35
2018-08-25T05:43:06.775Z,11.70
2018-08-25T05:45:34.211Z,12.33
2018-08-25T05:48:01.749Z,15.50
2018-08-25T05:50:30.386Z,14.13
2018-08-25T05:52:57.978Z,10.78
2018-08-25T05:55:26.327Z,13.08
2018-08-25T05:57:54.396Z,11.30
2018-08-25T06:00:22.469Z,15.60
2018-08-25T06:02:50.232Z,12.65
2018-08-25T06:05:18.024Z,15.65
2018-08-25T06:07:45.723Z,11.05
2018-08-25T06:10:13.221Z,15.32
2018-08-25T06:12:41.007Z,15.48
2018-08-25T06:15:08.618Z,16.90
2018-08-25T06:17:36.541Z,17.05
2018-08-25T06:20:04.048Z,15.95
2018-08-25T06:22:32.044Z,19.48
2018-08-25T06:24:59.842Z,13.70
2018-08-25T06:27:27.688Z,13.65
2018-08-25T06:29:55.468Z,13.83
2018-08-25T06:32:22.937Z,19.42
2018-08-25T06:34:51.109Z,20.00
2018-08-25T06:37:18.832Z,12.27
2018-08-25T06:39:46.323Z,12.30
2018-08-25T06:42:14.117Z,21.05
2018-08-25T06:44:41.924Z,13.80
2018-08-25T06:47:09.700Z,16.60
2018-08-25T06:49:37.457Z,15.95
2018-08-25T06:52:05.026Z,15.10
2018-08-25T06:54:32.526Z,17.32
2018-08-25T06:57:00.340Z,14.50
2018-08-25T06:59:27.892Z,27.30
2018-08-25T07:01:55.921Z,66.57
2018-08-25T07:04:23.740Z,15.30
2018-08-25T07:06:52.032Z,18.37
2018-08-25T07:09:19.992Z,19.00
2018-08-25T07:11:48.055Z,21.77
2018-08-25T07:14:15.883Z,21.07
2018-08-25T07:16:43.620Z,30.35
2018-08-25T07:19:11.123Z,25.70
2018-08-25T07:21:38.953Z,19.60
2018-08-25T07:24:06.891Z,20.30
2018-08-25T07:26:34.668Z,19.02
2018-08-25T07:29:02.124Z,12.40
2018-08-25T07:31:30.177Z,17.23
2018-08-25T07:33:58.250Z,16.30
2018-08-25T07:36:26.460Z,15.60
2018-08-25T07:38:54.236Z,11.55
2018-08-25T07:41:21.776Z,18.05
2018-08-25T07:43:49.451Z,25.53
2018-08-25T07:46:17.859Z,22.77
2018-08-25T07:48:45.606Z,21.10
2018-08-25T07:51:13.400Z,21.90
2018-08-25T07:53:41.644Z,24.92
2018-08-25T07:56:09.392Z,27.97
2018-08-25T07:58:36.907Z,20.55
2018-08-25T08:01:04.397Z,17.85
2018-08-25T08:03:32.170Z,22.32
2018-08-25T08:05:59.884Z,19.95
2018-08-25T08:08:27.379Z,20.45
2018-08-25T08:10:54.828Z,18.42
2018-08-25T08:13:22.688Z,26.68
2018-08-25T08:15:50.414Z,21.85
2018-08-25T08:18:17.912Z,27.25
2018-08-25T08:20:45.738Z,28.45
2018-08-25T08:23:13.237Z,28.85
2018-08-25T08:25:41.015Z,23.47
2018-08-25T08:28:08.869Z,27.27
2018-08-25T08:30:36.634Z,27.13
2018-08-25T08:33:04.488Z,22.90
2018-08-25T08:35:32.216Z,26.23
2018-08-25T08:38:00.354Z,20.85
2018-08-25T08:40:27.836Z,32.38
2018-08-25T08:42:55.867Z,24.40
2018-08-25T08:45:23.674Z,24.35
2018-08-25T08:47:51.516Z,18.00
2018-08-25T08:50:19.001Z,21.33
2018-08-25T08:52:46.543Z,27.97
2018-08-25T08:55:14.001Z,25.57
2018-08-25T08:57:41.790Z,22.85
2018-08-25T09:00:09.964Z,17.23
2018-08-25T09:02:37.806Z,25.10
2018-08-25T09:05:06.265Z,24.70
2018-08-25T09:07:33.738Z,23.63
2018-08-25T09:10:01.277Z,24.52
2018-08-25T09:12:28.731Z,30.72
2018-08-25T09:14:56.544Z,27.83
2018-08-25T09:17:24.029Z,23.55
2018-08-25T09:19:51.635Z,23.70
2018-08-25T09:22:19.415Z,39.35
2018-08-25T09:24:46.863Z,28.92
2018-08-25T09:27:14.787Z,22.23
2018-08-25T09:29:42.636Z,23.75
2018-08-25T09:32:10.481Z,23.02
2018-08-25T09:34:38.521Z,23.12
2018-08-25T09:37:06.109Z,32.53
2018-08-25T09:39:33.541Z,31.63
2018-08-25T09:42:02.200Z,25.52
2018-08-25T09:44:30.128Z,26.73
2018-08-25T09:46:58.121Z,28.25
2018-08-25T09:49:25.663Z,19.80
2018-08-25T09:51:53.699Z,30.05
2018-08-25T09:54:22.564Z,28.75
2018-08-25T09:56:50.404Z,75.13
2018-08-25T09:59:18.065Z,27.52
2018-08-25T10:01:51.220Z,36.23
2018-08-25T10:04:19.395Z,29.97
2018-08-25T10:06:47.044Z,33.17
2018-08-25T10:09:14.762Z,24.35
2018-08-25T10:11:42.559Z,39.67
2018-08-25T10:14:10.645Z,29.27
2018-08-25T10:16:38.296Z,20.75
2018-08-25T10:19:06.477Z,25.45
2018-08-25T10:21:34.376Z,31.35
2018-08-25T10:24:02.432Z,20.90
2018-08-25T10:26:30.217Z,24.85
2018-08-25T10:28:59.190Z,22.65
2018-08-25T10:31:26.664Z,32.20
2018-08-25T10:33:54.328Z,28.90
2018-08-25T10:36:22.316Z,23.95
2018-08-25T10:38:50.269Z,32.42
2018-08-25T10:41:18.392Z,29.18
2018-08-25T10:43:46.112Z,30.60
2018-08-25T10:46:14.558Z,23.57
2018-08-25T10:48:42.576Z,18.42
2018-08-25T10:51:10.491Z,20.72
2018-08-25T10:53:38.635Z,28.00
2018-08-25T10:56:06.284Z,25.08
2018-08-25T10:58:33.961Z,26.05
2018-08-25T11:01:01.623Z,26.17
2018-08-25T11:03:29.535Z,25.23
2018-08-25T11:05:57.719Z,18.75
2018-08-25T11:08:25.670Z,21.05
2018-08-25T11:10:53.637Z,19.90
2018-08-25T11:13:22.133Z,22.07
2018-08-25T11:15:49.952Z,29.02
2018-08-25T11:18:17.751Z,37.80
2018-08-25T11:20:45.180Z,43.28
2018-08-25T11:23:13.140Z,31.52
2018-08-25T11:25:40.825Z,63.05
2018-08-25T11:28:09.556Z,29.90
2018-08-25T11:30:38.010Z,26.00
2018-08-25T11:33:06.695Z,25.30
2018-08-25T11:35:35.036Z,21.90
2018-08-25T11:38:02.621Z,22.77
2018-08-25T11:40:30.607Z,35.95
2018-08-25T11:42:58.314Z,34.65
2018-08-25T11:45:26.048Z,28.10
2018-08-25T11:47:53.901Z,26.68
2018-08-25T11:50:21.420Z,34.25
2018-08-25T11:52:49.185Z,27.35
2018-08-25T11:55:18.004Z,41.92
2018-08-25T11:57:46.013Z,34.48
2018-08-25T12:00:13.605Z,28.53
2018-08-25T12:02:41.513Z,34.95
2018-08-25T12:05:08.966Z,32.97
2018-08-25T12:07:36.832Z,30.20
2018-08-25T12:10:04.528Z,30.52
2018-08-25T12:12:32.128Z,36.65
2018-08-25T12:15:00.568Z,30.00
2018-08-25T12:17:28.324Z,26.60
2018-08-25T12:19:56.267Z,26.57
2018-08-25T12:22:24.103Z,21.42
2018-08-25T12:24:52.128Z,29.00
2018-08-25T12:27:20.081Z,30.55
2018-08-25T12:29:47.688Z,22.25
2018-08-25T12:32:15.717Z,29.00
2018-08-25T12:34:43.884Z,25.40
2018-08-25T12:37:11.890Z,33.58
2018-08-25T12:39:39.823Z,18.30
2018-08-25T12:42:07.697Z,22.30
2018-08-25T12:44:35.740Z,29.52
2018-08-25T12:47:03.484Z,31.65
2018-08-25T12:49:31.628Z,24.85
2018-08-25T12:51:59.779Z,21.12
2018-08-25T12:54:27.448Z,40.48
2018-08-25T12:56:56.289Z,20.20
2018-08-25T12:59:23.772Z,21.73
2018-08-25T13:01:51.697Z,26.57
2018-08-25T13:04:19.371Z,24.98
2018-08-25T13:06:47.112Z,24.47
2018-08-25T13:09:14.819Z,31.37
2018-08-25T13:11:42.611Z,26.33
2018-08-25T13:14:10.544Z,24.50
2018-08-25T13:16:38.251Z,23.77
2018-08-25T13:19:06.081Z,23.00
2018-08-25T13:21:33.932Z,17.87
2018-08-25T13:24:01.698Z,20.00
2018-08-25T13:26:29.911Z,22.70
2018-08-25T13:28:57.884Z,108.77
2018-08-25T13:31:25.492Z,23.65
2018-08-25T13:33:52.945Z,28.57
2018-08-25T13:36:20.750Z,27.70
2018-08-25T13:38:48.940Z,21.37
2018-08-25T13:41:16.644Z,21.50
2018-08-25T13:43:44.419Z,37.50
2018-08-25T13:46:12.967Z,24.93
2018-08-25T13:48:40.653Z,23.35
2018-08-25T13:51:08.319Z,21.57
2018-08-25T13:53:35.732Z,21.35
2018-08-25T13:56:04.554Z,30.62
2018-08-25T13:58:32.061Z,23.27
2018-08-25T14:00:59.809Z,25.45
2018-08-25T14:03:28.128Z,27.10
2018-08-25T14:05:56.115Z,25.60
2018-08-25T14:08:24.100Z,32.28
2018-08-25T14:10:51.863Z,30.08
2018-08-25T14:13:19.908Z,27.17
2018-08-25T14:15:47.811Z,32.70
2018-08-25T14:18:15.756Z,23.60
2018-08-25T14:20:44.555Z,72.30
2018-08-25T14:23:12.604Z,19.17
2018-08-25T14:25:40.815Z,22.85
2018-08-25T14:28:08.376Z,21.23
2018-08-25T14:30:36.103Z,24.25
2018-08-25T14:33:03.973Z,28.07
2018-08-25T14:35:31.708Z,34.18
2018-08-25T14:37:59.562Z,29.20
2018-08-25T14:40:28.807Z,30.23
2018-08-25T14:42:56.615Z,32.40
2018-08-25T14:45:24.479Z,30.57
2018-08-25T14:47:52.025Z,33.53
2018-08-25T14:50:19.504Z,28.85
2018-08-25T14:52:46.941Z,35.40
2018-08-25T14:55:14.418Z,37.83
2018-08-25T14:57:41.930Z,36.85
2018-08-25T15:00:09.424Z,40.90
2018-08-25T15:02:37.163Z,35.93
2018-08-25T15:05:05.633Z,48.00
2018-08-25T15:07:33.443Z,41.60
2018-08-25T15:10:01.880Z,39.20
2018-08-25T15:12:29.345Z,42.25
2018-08-25T15:14:57.212Z,44.00
2018-08-25T15:17:24.708Z,43.45
2018-08-25T15:19:52.223Z,47.87
2018-08-25T15:22:19.701Z,45.43
2018-08-25T15:24:47.446Z,37.88
2018-08-25T15:27:15.322Z,41.48
2018-08-25T15:29:43.593Z,42.67
2018-08-25T15:32:11.376Z,45.23
2018-08-25T15:34:38.852Z,48.98
2018-08-25T15:37:06.421Z,47.10
2018-08-25T15:39:34.289Z,38.25
2018-08-25T15:42:01.791Z,39.17
2018-08-25T15:44:29.394Z,31.23
2018-08-25T15:46:57.168Z,40.12
2018-08-25T15:49:25.206Z,41.42
2018-08-25T15:51:52.772Z,60.55
2018-08-25T15:54:20.196Z,71.30
2018-08-25T15:56:47.984Z,60.20
2018-08-25T15:59:15.504Z,72.55
2018-08-25T16:01:42.992Z,72.55
2018-08-25T16:04:11.093Z,85.00
2018-08-25T16:06:38.649Z,42.98
2018-08-25T16:09:07.791Z,54.08
2018-08-25T16:11:35.576Z,46.33
2018-08-25T16:14:03.383Z,49.08
2018-08-25T16:16:30.872Z,52.93
2018-08-25T16:18:58.685Z,39.18
2018-08-25T16:21:26.461Z,39.63
2018-08-25T16:23:54.029Z,50.88
2018-08-25T16:26:22.245Z,46.53
2018-08-25T16:28:49.972Z,39.25
2018-08-25T16:31:18.017Z,53.40
2018-08-25T16:33:45.553Z,54.58
2018-08-25T16:36:13.688Z,56.97
2018-08-25T16:38:41.220Z,48.63
2018-08-25T16:41:08.997Z,49.15
2018-08-25T16:43:36.497Z,54.42
2018-08-25T16:46:03.995Z,47.48
2018-08-25T16:48:31.547Z,44.35
2018-08-25T16:50:59.626Z,38.60
2018-08-25T16:53:27.469Z,42.50
2018-08-25T16:55:55.301Z,64.85
2018-08-25T16:58:22.761Z,74.55
2018-08-25T17:00:50.789Z,36.70
2018-08-25T17:03:18.584Z,34.67
2018-08-25T17:05:46.161Z,31.48
2018-08-25T17:08:13.824Z,41.48
2018-08-25T17:10:41.791Z,38.20
2018-08-25T17:13:09.399Z,43.38
2018-08-25T17:15:37.144Z,35.40
2018-08-25T17:18:05.402Z,34.90
2018-08-25T17:20:33.225Z,41.40
2018-08-25T17:23:00.639Z,37.85
2018-08-25T17:25:28.497Z,41.10
2018-08-25T17:27:56.302Z,36.70
2018-08-25T17:30:23.823Z,47.43
2018-08-25T17:32:51.579Z,38.17
2018-08-25T17:35:19.392Z,34.05
2018-08-25T17:37:47.248Z,34.40
2018-08-25T17:40:14.743Z,48.98
2018-08-25T17:42:42.517Z,36.47
2018-08-25T17:45:10.521Z,34.90
2018-08-25T17:47:38.628Z,37.88
2018-08-25T17:50:06.546Z,38.23
2018-08-25T17:52:34.094Z,32.28
2018-08-25T17:55:01.993Z,41.08
2018-08-25T17:57:29.931Z,39.38
2018-08-25T17:59:57.672Z,37.67
2018-08-25T18:02:25.743Z,37.83
2018-08-25T18:04:53.513Z,29.40
2018-08-25T18:07:21.304Z,39.18
2018-08-25T18:09:49.428Z,37.27
2018-08-25T18:12:17.199Z,40.20
2018-08-25T18:14:44.748Z,40.12
2018-08-25T18:17:12.854Z,32.03
2018-08-25T18:19:40.365Z,32.37
2018-08-25T18:22:08.457Z,34.05
2018-08-25T18:24:35.957Z,29.35
2018-08-25T18:27:03.729Z,33.58
2018-08-25T18:29:31.244Z,29.30
2018-08-25T18:31:58.945Z,33.38
2018-08-25T18:34:26.653Z,28.73
2018-08-25T18:36:54.126Z,28.60
2018-08-25T18:39:21.649Z,32.08
2018-08-25T18:41:49.648Z,30.23
2018-08-25T18:44:17.180Z,28.42
2018-08-25T18:46:44.675Z,39.37
2018-08-25T18:49:12.160Z,30.75
2018-08-25T18:51:39.644Z,29.27
2018-08-25T18:54:07.225Z,27.55
2018-08-25T18:56:34.754Z,30.72
2018-08-25T18:59:02.306Z,33.40
2018-08-25T19:01:30.143Z,37.70
2018-08-25T19:03:57.724Z,32.83
2018-08-25T19:06:25.516Z,29.25
2018-08-25T19:08:53.328Z,34.20
2018-08-25T19:11:21.052Z,33.30
2018-08-25T19:13:48.491Z,34.92
2018-08-25T19:16:16.515Z,31.20
2018-08-25T19:18:43.998Z,27.98
2018-08-25T19:21:11.467Z,27.10
2018-08-25T19:23:38.930Z,30.75
2018-08-25T19:26:06.457Z,29.87
2018-08-25T19:28:34.319Z,32.17
2018-08-25T19:31:02.015Z,29.67
2018-08-25T19:33:30.156Z,32.10
2018-08-25T19:35:58.239Z,30.20
2018-08-25T19:38:25.996Z,27.27
2018-08-25T19:40:53.483Z,31.93
2018-08-25T19:43:20.992Z,32.80
2018-08-25T19:45:48.429Z,28.30
2018-08-25T19:48:16.128Z,28.70
2018-08-25T19:50:43.680Z,29.20
2018-08-25T19:53:11.502Z,29.00
2018-08-25T19:55:38.992Z,28.60
2018-08-25T19:58:06.788Z,25.55
2018-08-25T20:00:34.291Z,30.90
2018-08-25T20:03:02.112Z,35.13
2018-08-25T20:05:29.612Z,31.52
2018-08-25T20:07:57.504Z,36.88
2018-08-25T20:10:24.927Z,42.67
2018-08-25T20:12:52.648Z,35.73
2018-08-25T20:15:20.125Z,32.45
2018-08-25T20:17:47.648Z,36.13
2018-08-25T20:20:15.152Z,34.48
2018-08-25T20:22:43.100Z,33.98
2018-08-25T20:25:10.629Z,36.73
2018-08-25T20:27:38.488Z,42.03
2018-08-25T20:30:06.132Z,42.85
2018-08-25T20:32:34.005Z,42.27
2018-08-25T20:35:01.535Z,38.23
2018-08-25T20:37:29.066Z,39.53
2018-08-25T20:39:56.492Z,40.57
2018-08-25T20:42:24.032Z,40.85
2018-08-25T20:44:51.540Z,39.65
2018-08-25T20:47:19.616Z,39.00
2018-08-25T20:49:47.380Z,41.92
2018-08-25T20:52:15.509Z,34.27
2018-08-25T20:54:42.989Z,36.20
2018-08-25T20:57:10.525Z,38.55
2018-08-25T20:59:38.055Z,40.80
2018-08-25T21:02:05.801Z,37.63
2018-08-25T21:04:33.575Z,35.63
2018-08-25T21:07:01.365Z,30.15
2018-08-25T21:09:29.198Z,31.40
2018-08-25T21:11:56.705Z,37.93
2018-08-25T21:14:24.480Z,28.70
2018-08-25T21:16:52.063Z,33.77
2018-08-25T21:19:19.597Z,34.67
2018-08-25T21:21:47.132Z,34.90
2018-08-25T21:24:15.479Z,31.90
2018-08-25T21:26:43.787Z,32.83
2018-08-25T21:29:11.461Z,30.50
2018-08-25T21:31:39.180Z,38.70
2018-08-25T21:34:07.324Z,35.53
2018-08-25T21:36:34.819Z,38.63
2018-08-25T21:39:03.502Z,36.13
2018-08-25T21:41:31.123Z,35.53
2018-08-25T21:43:58.700Z,37.85
2018-08-25T21:46:26.215Z,38.60
2018-08-25T21:48:53.904Z,41.23
2018-08-25T21:51:21.416Z,33.23
2018-08-25T21:53:49.183Z,44.00
2018-08-25T21:56:16.777Z,36.93
2018-08-25T21:58:44.398Z,42.55
2018-08-25T22:01:12.680Z,32.78
2018-08-25T22:03:40.360Z,38.50
2018-08-25T22:06:07.822Z,40.28
2018-08-25T22:08:35.464Z,42.93
2018-08-25T22:11:03.173Z,35.05
2018-08-25T22:13:31.105Z,42.98
2018-08-25T22:15:59.147Z,37.90
2018-08-25T22:18:26.742Z,30.12
2018-08-25T22:20:54.645Z,41.75
2018-08-25T22:23:23.013Z,40.20
2018-08-25T22:25:50.724Z,36.58
2018-08-25T22:28:19.712Z,30.45
2018-08-25T22:30:47.656Z,38.00
2018-08-25T22:33:15.656Z,21.45
2018-08-25T22:35:43.629Z,39.37
2018-08-25T22:38:11.704Z,35.55
2018-08-25T22:40:39.427Z,39.15
2018-08-25T22:43:07.272Z,31.17
2018-08-25T22:45:35.222Z,36.90
2018-08-25T22:48:02.820Z,33.02
2018-08-25T22:50:30.784Z,35.15
2018-08-25T22:52:58.321Z,38.65
2018-08-25T22:55:27.937Z,45.30
2018-08-25T22:57:55.658Z,37.63
2018-08-25T23:00:24.715Z,36.23
2018-08-25T23:02:52.928Z,35.43
2018-08-25T23:05:20.661Z,32.53
2018-08-25T23:07:49.277Z,30.12
2018-08-25T23:10:17.247Z,36.33
2018-08-25T23:12:45.016Z,35.08
2018-08-25T23:15:13.192Z,32.40
2018-08-25T23:17:41.289Z,24.73
2018-08-25T23:20:08.839Z,39.63
2018-08-25T23:22:36.846Z,43.70
2018-08-25T23:25:04.707Z,30.90
2018-08-25T23:27:32.829Z,29.35
2018-08-25T23:30:00.423Z,40.12
2018-08-25T23:32:27.991Z,33.80
2018-08-25T23:34:56.328Z,30.20
2018-08-25T23:37:24.248Z,31.35
2018-08-25T23:39:51.758Z,32.20
2018-08-25T23:42:19.359Z,34.98
2018-08-25T23:44:46.903Z,25.48
2018-08-25T23:47:16.276Z,32.33
2018-08-25T23:49:44.083Z,41.77
2018-08-25T23:52:12.485Z,30.25
2018-08-25T23:54:41.007Z,34.80
2018-08-25T23:57:08.974Z,38.30
2018-08-25T23:59:36.968Z,28.92
